Historyczne dane pomiarowe

Dodano dane terminowe – wersja testowa.

Dane z okresu 1951-2019

Wersja bazy: 1.34 [2019-03-16, lista zmian], aktualizacja planowana na 2019-04-15

Dane meteo z obszaru Polski uzyskane na podstawie danych udostępnionych przez Instytut Meteorologii i Gospodarki Wodnej – Państwowy Instytut Badawczy.

 

Wybierz Datę:    

       

TemperaturaWilgotnośćWiatrCiśnienieOpadyŚniegCzas trwania zjawisk
 Stacja t tx tn tng RH VA  wxwx mslp ppp RRR   cm mm wxwxwxwxwxwxwx
1987-08-14 13.5 19.2 7.0 4.9 78.0- 3.0 1.3---- 0.4------------
1987-08-13 13.5 19.2 8.0 5.9 74.3- 2.7 1.3---- 0.0------------
1987-08-12 14.4 18.8 10.2 7.4 66.5- 1.0 1.7---- 0.0------------
1987-08-11 13.7 17.8 12.4 10.9 75.3- 5.3 1.3---- 0.0------------
1987-08-10 15.5 21.0 13.1 11.4 81.8- 5.3 1.7---- 12.2------------
1987-08-09 20.0 25.0 14.0 9.4 50.8- 2.7 1.7---- 0.0------------
1987-08-08 15.9 20.0 11.2 9.1 70.8- 3.3 1.3---- 0.0------------
1987-08-07 12.6 15.2 9.0 6.3 76.3- 5.7 2.0---- 0.2------------
1987-08-06 13.0 17.0 11.0 7.5 74.0- 4.0 2.7---- 0.0------------
1987-08-05 13.7 17.0 10.0 7.5 77.3- 4.7 1.0---- 2.2------------
1987-08-04 18.1 20.6 15.8 13.3 72.3- 4.0 1.7---- 0.0------------
1987-08-03 16.1 20.0 12.2 10.4 73.3- 3.3 2.3---- 0.0------------
1987-08-02 15.9 19.8 13.1 11.4 74.5- 5.0 2.7---- 12.2------------
1987-08-01 16.6 20.8 10.4 5.7 69.3- 4.3 2.3---- 0.5------------
1987-07-31 16.8 21.0 14.1 13.4 89.8- 7.3 1.0---- 4.0------------
1987-07-30 19.2 25.0 14.0 10.9 65.8- 2.0 0.7---- 0.0------------
1987-07-29 15.9 21.0 12.2 10.3 61.8- 5.7 1.3---- 0.0------------
1987-07-28 14.1 16.4 12.5 10.7 78.0- 8.0 1.3---- 1.5------------
1987-07-27 13.9 18.0 10.0 7.9 67.8- 6.3 2.0---- 2.2------------
1987-07-26 13.5 20.6 10.7 8.5 92.8- 6.7 1.3---- 13.0------------
1987-07-25 19.9 25.9 14.0 12.4 77.0- 4.7 2.0---- 1.6------------
1987-07-24 22.0 27.0 17.3 15.7 82.5- 1.3 1.7---- 1.6------------
1987-07-23 21.6 28.3 13.0 8.5 82.5- 2.7 1.0---- 8.6------------
1987-07-22 20.0 25.5 16.2 15.4 76.5- 2.7 2.0---- 0.0------------
1987-07-21 22.0 27.1 16.0 13.9 79.3- 1.7 1.3---- 0.0------------
1987-07-20 20.7 24.0 17.5 14.9 78.3- 2.3 1.7---- 0.0------------
1987-07-19 23.0 27.0 17.0 14.7 79.0- 5.0 2.0---- 1.8------------
1987-07-18 26.4 29.6 19.1 14.7 71.3- 1.3 1.0---- 0.0------------
1987-07-17 23.2 31.0 16.1 12.9 72.0- 4.0 1.7---- 0.0------------
1987-07-16 19.0 26.7 12.8 11.3 80.0- 3.7 1.3---- 1.8------------
1987-07-15 17.7 23.2 9.2 8.4 71.0- 0.0 1.3---- 0.0------------
1987-07-14 17.1 21.0 11.2 10.5 61.0- 0.0 0.7---- 0.0------------
1987-07-13 20.1 24.8 16.5 13.3 71.0- 2.3 1.7---- 0.0------------
1987-07-12 23.8 30.4 20.0 15.1 68.8- 2.7 3.0---- 21.2------------
1987-07-11 18.7 25.0 9.0 7.9 65.0- 0.0 1.3---- 0.0------------
1987-07-10 16.0 20.8 12.8 9.5 69.8- 2.0 2.7---- 0.0------------
1987-07-09 17.5 24.8 15.8 14.9 89.0- 8.0 1.0---- 15.2------------
1987-07-08 23.8 31.5 13.2 11.1 51.3- 0.7 2.0---- 0.0------------
1987-07-07 19.3 26.9 8.0 6.9 68.8- 0.0 1.3---- 0.0------------
1987-07-06 17.1 23.0 9.0 8.5 77.8- 0.0 1.3---- 0.0------------
1987-07-05 16.7 20.8 15.2 13.7 85.0- 5.3 1.3---- 1.0------------
1987-07-04 20.9 24.8 15.7 14.3 73.5- 3.7 2.0---- 0.0------------
1987-07-03 19.8 23.0 16.8 14.4 81.8- 7.3 1.7---- 0.0------------
1987-07-02 20.0 30.0 17.0 15.7 93.3- 8.0 1.0---- 2.4------------
1987-07-01 27.8 33.0 17.9 16.4 68.3- 0.0 1.0---- 0.0------------
1987-06-30 23.7 28.6 14.0 12.9 77.0- 0.0 1.0---- 0.0------------
1987-06-29 21.3 26.1 16.9 15.5 79.3- 0.3 1.3---- 0.0------------
1987-06-28 19.3 25.0 13.0 11.5 77.8- 1.3 1.0---- 0.0------------
1987-06-27 17.9 22.0 15.7 14.3 84.5- 8.0 1.0---- 0.0------------
1987-06-26 17.0 25.5 8.0 5.7 77.0- 2.7 1.7---- 13.2------------
1987-06-25 14.4 19.0 13.0 12.4 78.0- 5.3 2.0---- 1.2------------
1987-06-24 17.0 21.8 14.0 12.9 67.5- 5.3 2.7---- 1.6------------
1987-06-23 15.9 21.0 12.4 11.9 76.5- 5.7 2.0---- 0.0------------
1987-06-22 14.8 21.8 13.5 12.1 88.3- 7.0 1.7---- 0.8------------
1987-06-21 16.4 23.0 9.0 7.7 79.3- 2.7 2.3---- 5.8------------
1987-06-20 14.5 20.0 8.7 7.5 72.3- 4.7 1.3---- 0.0------------
1987-06-19 13.2 18.0 8.0 6.3 67.0- 0.3 1.7---- 0.0------------
1987-06-18 10.7 15.0 7.0 5.4 75.5- 4.3 2.7---- 1.2------------
1987-06-17 11.1 14.0 9.0 8.1 76.5- 3.0 1.7---- 2.2------------
1987-06-16 13.6 23.0 10.0 10.1 83.8- 7.3 1.3---- 13.2------------
505.1 ms

 

Źródłem pochodzenia danych jest Instytut Meteorologii i Gospodarki Wodnej – Państwowy Instytut Badawczy. Dane Instytutu Meteorologii i Gospodarki Wodnej – Państwowego Instytutu Badawczego zostały przetworzone.

Dane źródłowe można odnaleźć na stronie https://dane.imgw.pl